createdAt,value
2018-06-12T00:00:10.332Z,97.20
2018-06-12T00:05:05.013Z,97.30
2018-06-12T00:09:59.489Z,97.70
2018-06-12T00:14:53.972Z,97.60
2018-06-12T00:19:48.458Z,97.50
2018-06-12T00:24:43.009Z,97.70
2018-06-12T00:29:37.502Z,97.80
2018-06-12T00:34:31.996Z,97.80
2018-06-12T00:39:26.488Z,97.60
2018-06-12T00:44:20.936Z,97.60
2018-06-12T00:49:15.387Z,97.50
2018-06-12T00:54:09.849Z,97.60
2018-06-12T00:59:04.467Z,97.50
2018-06-12T01:03:58.977Z,97.40
2018-06-12T01:08:53.468Z,97.80
2018-06-12T01:13:47.939Z,97.60
2018-06-12T01:18:42.437Z,97.50
2018-06-12T01:23:36.880Z,97.40
2018-06-12T01:28:31.304Z,97.60
2018-06-12T01:33:25.752Z,97.80
2018-06-12T01:38:20.252Z,97.70
2018-06-12T01:43:14.745Z,97.70
2018-06-12T01:48:09.161Z,97.70
2018-06-12T01:53:03.701Z,97.70
2018-06-12T01:57:58.096Z,97.60
2018-06-12T02:02:52.501Z,97.80
2018-06-12T02:07:46.938Z,97.70
2018-06-12T02:12:45.347Z,97.60
2018-06-12T02:17:39.778Z,97.80
2018-06-12T02:22:34.193Z,97.90
2018-06-12T02:27:28.625Z,97.70
2018-06-12T02:32:23.084Z,97.60
2018-06-12T02:37:17.512Z,97.60
2018-06-12T02:42:12.005Z,97.70
2018-06-12T02:47:06.421Z,97.80
2018-06-12T02:52:00.901Z,97.80
2018-06-12T02:56:55.396Z,97.80
2018-06-12T03:01:49.863Z,97.90
2018-06-12T03:06:44.353Z,97.80
2018-06-12T03:11:38.793Z,97.90
2018-06-12T03:16:33.237Z,97.70
2018-06-12T03:21:27.651Z,97.70
2018-06-12T03:26:22.092Z,97.80
2018-06-12T03:31:16.491Z,97.70
2018-06-12T03:36:10.983Z,97.50
2018-06-12T03:41:05.532Z,97.60
2018-06-12T03:45:59.996Z,97.60
2018-06-12T03:50:54.453Z,97.60
2018-06-12T03:55:48.907Z,97.40
2018-06-12T04:00:43.389Z,97.30
2018-06-12T04:05:37.900Z,96.70
2018-06-12T04:10:32.338Z,95.20
2018-06-12T04:15:26.809Z,93.00
2018-06-12T04:20:21.290Z,91.50
2018-06-12T04:25:15.705Z,91.50
2018-06-12T04:30:10.140Z,92.30
2018-06-12T04:35:04.718Z,92.90
2018-06-12T04:39:59.235Z,93.50
2018-06-12T04:44:53.662Z,93.60
2018-06-12T04:49:48.092Z,94.00
2018-06-12T04:54:42.587Z,94.20
2018-06-12T04:59:37.026Z,94.40
2018-06-12T05:04:31.464Z,94.30
2018-06-12T05:09:25.952Z,94.60
2018-06-12T05:14:20.454Z,95.00
2018-06-12T05:19:22.692Z,95.00
2018-06-12T05:24:17.250Z,94.80
2018-06-12T05:29:12.058Z,94.60
2018-06-12T05:34:15.809Z,94.30
2018-06-12T05:39:12.071Z,92.40
2018-06-12T05:44:06.655Z,90.20
2018-06-12T05:49:01.338Z,88.90
2018-06-12T05:53:55.761Z,88.10
2018-06-12T05:58:50.176Z,86.30
2018-06-12T06:03:44.642Z,84.60
2018-06-12T06:08:39.084Z,83.50
2018-06-12T06:13:33.500Z,83.10
2018-06-12T06:18:27.953Z,83.30
2018-06-12T06:23:22.348Z,85.90
2018-06-12T06:28:16.745Z,85.20
2018-06-12T06:33:11.223Z,86.30
2018-06-12T06:38:11.747Z,86.30
2018-06-12T06:43:06.554Z,86.30
2018-06-12T06:48:00.988Z,86.80
2018-06-12T06:52:55.695Z,86.80
2018-06-12T06:57:50.184Z,87.00
2018-06-12T07:02:45.098Z,88.40
2018-06-12T07:07:43.676Z,88.00
2018-06-12T07:13:01.087Z,88.10
2018-06-12T07:17:55.556Z,85.50
2018-06-12T07:22:50.755Z,83.80
2018-06-12T07:27:45.217Z,82.20
2018-06-12T07:37:33.823Z,83.40
2018-06-12T07:42:28.213Z,83.80
2018-06-12T07:47:22.696Z,84.70
2018-06-12T07:52:17.121Z,83.50
2018-06-12T07:57:11.589Z,83.10
2018-06-12T08:02:06.096Z,81.90
2018-06-12T08:07:00.732Z,83.70
2018-06-12T08:11:55.160Z,83.40
2018-06-12T08:16:49.704Z,81.40
2018-06-12T08:21:44.192Z,80.00
2018-06-12T08:26:38.681Z,77.10
2018-06-12T08:36:27.371Z,74.90
2018-06-12T08:41:21.805Z,74.00
2018-06-12T08:46:16.200Z,73.80
2018-06-12T08:56:05.444Z,73.90
2018-06-12T09:01:00.095Z,72.70
2018-06-12T09:05:54.766Z,73.30
2018-06-12T09:10:50.775Z,73.00
2018-06-12T09:15:46.077Z,73.60
2018-06-12T09:20:40.523Z,72.10
2018-06-12T09:25:34.944Z,73.80
2018-06-12T09:30:32.840Z,73.70
2018-06-12T09:35:29.316Z,74.70
2018-06-12T09:40:26.804Z,74.00
2018-06-12T09:45:22.553Z,72.30
2018-06-12T09:50:19.958Z,78.80
2018-06-12T09:55:15.002Z,80.10
2018-06-12T10:00:09.688Z,80.20
2018-06-12T10:05:05.041Z,77.60
2018-06-12T10:09:59.535Z,75.90
2018-06-12T10:15:08.976Z,74.30
2018-06-12T10:20:03.780Z,72.40
2018-06-12T10:24:58.788Z,70.70
2018-06-12T10:29:53.300Z,69.70
2018-06-12T10:34:47.700Z,68.40
2018-06-12T10:39:42.140Z,68.00
2018-06-12T10:44:36.876Z,66.90
2018-06-12T10:49:31.655Z,67.00
2018-06-12T10:54:28.335Z,65.90
2018-06-12T10:59:22.829Z,66.20
2018-06-12T11:04:17.967Z,63.40
2018-06-12T11:09:12.503Z,66.80
2018-06-12T11:14:07.458Z,65.00
2018-06-12T11:19:05.884Z,63.50
2018-06-12T11:24:01.342Z,65.70
2018-06-12T11:28:58.860Z,62.40
2018-06-12T11:33:53.798Z,62.30
2018-06-12T11:38:48.394Z,60.50
2018-06-12T11:43:42.949Z,60.00
2018-06-12T11:53:31.735Z,62.70
2018-06-12T11:58:26.395Z,62.10
2018-06-12T12:03:21.079Z,62.70
2018-06-12T12:08:15.567Z,64.50
2018-06-12T12:13:09.986Z,64.20
2018-06-12T12:23:00.028Z,65.40
2018-06-12T12:27:54.924Z,66.80
2018-06-12T12:32:49.349Z,67.20
2018-06-12T12:37:45.902Z,67.00
2018-06-12T12:42:40.476Z,69.10
2018-06-12T12:47:35.835Z,71.20
2018-06-12T12:52:31.188Z,70.50
2018-06-12T12:57:25.761Z,69.00
2018-06-12T13:07:14.314Z,68.20
2018-06-12T13:12:08.872Z,68.10
2018-06-12T13:17:22.794Z,67.90
2018-06-12T13:22:17.408Z,68.60
2018-06-12T13:32:41.987Z,70.30
2018-06-12T13:37:39.108Z,69.70
2018-06-12T13:47:33.267Z,69.20
2018-06-12T13:52:29.054Z,69.90
2018-06-12T13:57:24.150Z,68.90
2018-06-12T14:02:26.846Z,69.00
2018-06-12T14:07:22.476Z,69.00
2018-06-12T14:12:24.289Z,69.10
2018-06-12T14:17:19.370Z,68.20
2018-06-12T14:22:23.478Z,67.30
2018-06-12T14:27:30.875Z,67.80
2018-06-12T14:32:30.863Z,70.80
2018-06-12T14:37:26.555Z,70.80
2018-06-12T14:42:24.960Z,71.40
2018-06-12T14:47:31.389Z,72.30
2018-06-12T14:52:29.029Z,73.90
2018-06-12T14:57:25.765Z,71.90
2018-06-12T15:02:45.545Z,71.50
2018-06-12T15:13:17.248Z,71.80
2018-06-12T15:24:02.784Z,68.80
2018-06-12T15:29:08.600Z,69.70
2018-06-12T15:34:14.132Z,72.40
2018-06-12T15:39:17.911Z,72.30
2018-06-12T15:44:13.950Z,69.00
2018-06-12T15:49:12.311Z,69.20
2018-06-12T15:54:08.686Z,71.00
2018-06-12T15:59:10.568Z,69.70
2018-06-12T16:04:09.533Z,67.70
2018-06-12T16:09:07.610Z,68.00
2018-06-12T16:14:05.506Z,70.40
2018-06-12T16:19:08.157Z,74.80
2018-06-12T16:24:04.219Z,81.10
2018-06-12T16:28:59.887Z,86.60
2018-06-12T16:33:54.743Z,88.00
2018-06-12T16:38:50.022Z,87.00
2018-06-12T16:43:44.781Z,89.30
2018-06-12T16:48:39.438Z,90.00
2018-06-12T16:53:33.937Z,90.90
2018-06-12T16:58:28.486Z,91.80
2018-06-12T17:03:23.340Z,90.60
2018-06-12T17:08:18.162Z,91.20
2018-06-12T17:13:12.737Z,91.80
2018-06-12T17:18:07.652Z,91.40
2018-06-12T17:23:02.369Z,90.70
2018-06-12T17:27:56.797Z,90.60
2018-06-12T17:32:51.328Z,90.80
2018-06-12T17:37:47.417Z,91.90
2018-06-12T17:42:42.179Z,93.50
2018-06-12T17:47:37.191Z,94.10
2018-06-12T17:52:32.037Z,93.50
2018-06-12T17:57:26.540Z,94.00
2018-06-12T18:02:21.164Z,94.50
2018-06-12T18:07:15.785Z,95.30
2018-06-12T18:12:10.400Z,95.80
2018-06-12T18:17:05.207Z,95.80
2018-06-12T18:21:59.832Z,96.20
2018-06-12T18:26:54.273Z,96.80
2018-06-12T18:31:48.797Z,96.80
2018-06-12T18:36:43.291Z,97.00
2018-06-12T18:41:37.868Z,97.50
2018-06-12T18:46:32.386Z,97.30
2018-06-12T18:51:26.812Z,98.00
2018-06-12T18:56:22.092Z,98.50
2018-06-12T19:01:16.499Z,99.90
2018-06-12T19:06:10.989Z,99.90
2018-06-12T19:11:05.503Z,99.40
2018-06-12T19:15:59.952Z,99.30
2018-06-12T19:20:54.391Z,99.30
2018-06-12T19:25:48.840Z,99.10
2018-06-12T19:30:43.240Z,99.10
2018-06-12T19:35:37.665Z,99.20
2018-06-12T19:40:32.177Z,99.90
2018-06-12T19:45:26.609Z,99.60
2018-06-12T19:50:21.085Z,99.90
2018-06-12T19:55:15.561Z,99.70
2018-06-12T20:00:10.036Z,99.80
2018-06-12T20:14:52.872Z,99.90
2018-06-12T20:19:47.386Z,99.90
2018-06-12T20:24:43.358Z,99.60
2018-06-12T20:29:38.030Z,99.70
2018-06-12T20:34:32.624Z,99.20
2018-06-12T20:39:27.168Z,98.90
2018-06-12T20:44:21.670Z,98.70
2018-06-12T20:49:17.224Z,98.60
2018-06-12T20:54:11.740Z,99.60
2018-06-12T20:59:06.262Z,99.50
2018-06-12T21:04:00.725Z,99.50
2018-06-12T21:08:55.223Z,99.50
2018-06-12T21:13:49.637Z,99.90
2018-06-12T21:18:44.169Z,99.80
2018-06-12T21:23:38.715Z,99.70
2018-06-12T21:28:33.357Z,99.60
2018-06-12T21:33:28.049Z,99.40
2018-06-12T21:38:22.674Z,99.50
2018-06-12T21:43:17.199Z,99.60
2018-06-12T21:48:15.546Z,99.30
2018-06-12T21:53:10.193Z,99.90
2018-06-12T21:58:04.660Z,99.20
2018-06-12T22:02:59.197Z,98.80
2018-06-12T22:07:54.209Z,99.70
2018-06-12T22:12:48.665Z,99.40
2018-06-12T22:17:51.129Z,98.50
2018-06-12T22:22:45.628Z,98.60
2018-06-12T22:27:40.081Z,99.10
2018-06-12T22:32:34.500Z,99.40
2018-06-12T22:37:28.949Z,99.40
2018-06-12T22:42:23.399Z,99.90
2018-06-12T22:47:17.833Z,99.90
2018-06-12T22:52:12.228Z,99.90
2018-06-12T22:57:06.985Z,99.90
2018-06-12T23:06:55.565Z,99.90
2018-06-12T23:11:49.997Z,99.90
2018-06-12T23:16:44.443Z,99.90
2018-06-12T23:21:55.805Z,99.90
2018-06-12T23:26:50.200Z,99.90
2018-06-12T23:31:44.628Z,99.90
2018-06-12T23:36:39.019Z,99.90
2018-06-12T23:41:33.434Z,99.90
2018-06-12T23:46:27.876Z,99.90
2018-06-12T23:51:22.376Z,99.90
2018-06-12T23:56:16.800Z,99.90
